createdAt,value
2023-11-19T00:01:09.333Z,95.74
2023-11-19T00:03:58.219Z,95.65
2023-11-19T00:06:26.403Z,95.51
2023-11-19T00:08:54.354Z,95.30
2023-11-19T00:11:22.596Z,94.99
2023-11-19T00:13:50.525Z,94.78
2023-11-19T00:16:20.614Z,94.77
2023-11-19T00:18:48.855Z,94.89
2023-11-19T00:21:16.949Z,94.87
2023-11-19T00:23:45.075Z,94.80
2023-11-19T00:26:13.011Z,94.81
2023-11-19T00:28:42.318Z,94.85
2023-11-19T00:31:10.546Z,94.91
2023-11-19T00:36:17.367Z,94.63
2023-11-19T00:38:45.805Z,94.28
2023-11-19T00:41:13.730Z,94.31
2023-11-19T00:43:41.869Z,94.52
2023-11-19T00:46:09.907Z,94.39
2023-11-19T00:48:38.164Z,94.21
2023-11-19T00:51:06.276Z,94.14
2023-11-19T00:53:34.883Z,94.06
2023-11-19T00:56:02.843Z,93.96
2023-11-19T00:58:30.884Z,93.90
2023-11-19T01:00:59.304Z,93.88
2023-11-19T01:03:27.323Z,93.74
2023-11-19T01:05:55.339Z,93.77
2023-11-19T01:08:23.264Z,94.00
2023-11-19T01:10:51.333Z,94.34
2023-11-19T01:13:22.528Z,94.24
2023-11-19T01:15:50.928Z,94.16
2023-11-19T01:18:19.557Z,94.08
2023-11-19T01:20:48.230Z,93.94
2023-11-19T01:23:16.155Z,93.72
2023-11-19T01:25:44.870Z,94.09
2023-11-19T01:28:13.293Z,94.39
2023-11-19T01:30:41.287Z,94.41
2023-11-19T01:33:09.274Z,94.37
2023-11-19T01:35:37.470Z,94.58
2023-11-19T01:38:05.352Z,94.58
2023-11-19T01:40:36.737Z,94.55
2023-11-19T01:43:04.907Z,94.34
2023-11-19T01:45:32.984Z,94.11
2023-11-19T01:48:03.334Z,94.02
2023-11-19T01:50:33.035Z,93.94
2023-11-19T01:53:01.236Z,93.76
2023-11-19T01:55:29.571Z,93.62
2023-11-19T01:58:00.884Z,93.42
2023-11-19T02:00:28.889Z,93.24
2023-11-19T02:02:57.505Z,93.09
2023-11-19T02:05:26.172Z,93.08
2023-11-19T02:07:54.937Z,92.94
2023-11-19T02:10:22.880Z,92.73
2023-11-19T02:12:50.883Z,92.57
2023-11-19T02:15:19.108Z,92.65
2023-11-19T02:17:47.061Z,92.76
2023-11-19T02:20:15.064Z,92.80
2023-11-19T02:22:43.093Z,92.87
2023-11-19T02:25:40.469Z,92.94
2023-11-19T02:28:08.595Z,92.81
2023-11-19T02:30:36.567Z,92.83
2023-11-19T02:33:04.535Z,92.97
2023-11-19T02:35:33.140Z,92.73
2023-11-19T02:38:01.187Z,92.72
2023-11-19T02:40:29.192Z,92.92
2023-11-19T02:42:57.336Z,93.02
2023-11-19T02:45:26.772Z,92.97
2023-11-19T02:47:55.111Z,92.84
2023-11-19T02:50:24.056Z,92.92
2023-11-19T02:52:55.620Z,93.05
2023-11-19T02:55:24.195Z,93.11
2023-11-19T02:57:53.069Z,92.83
2023-11-19T03:00:22.253Z,92.72
2023-11-19T03:05:35.714Z,92.76
2023-11-19T03:08:03.770Z,92.84
2023-11-19T03:10:31.762Z,92.54
2023-11-19T03:12:59.802Z,92.47
2023-11-19T03:15:27.803Z,92.61
2023-11-19T03:17:55.760Z,92.69
2023-11-19T03:20:23.743Z,92.62
2023-11-19T03:22:51.880Z,92.50
2023-11-19T03:25:19.928Z,92.51
2023-11-19T03:27:49.211Z,92.46
2023-11-19T03:30:17.377Z,92.53
2023-11-19T03:32:45.289Z,92.72
2023-11-19T03:35:13.242Z,92.76
2023-11-19T03:37:41.296Z,92.66
2023-11-19T03:40:09.484Z,92.55
2023-11-19T03:42:37.384Z,92.46
2023-11-19T03:45:05.639Z,92.39
2023-11-19T03:47:33.605Z,92.43
2023-11-19T03:50:01.714Z,92.60
2023-11-19T03:52:30.128Z,92.67
2023-11-19T03:54:58.182Z,92.55
2023-11-19T03:57:26.307Z,92.66
2023-11-19T03:59:54.453Z,93.11
2023-11-19T04:02:22.648Z,93.30
2023-11-19T04:04:50.741Z,93.34
2023-11-19T04:07:18.679Z,93.26
2023-11-19T04:09:46.578Z,93.33
2023-11-19T04:12:14.672Z,93.15
2023-11-19T04:14:42.654Z,92.98
2023-11-19T04:17:10.728Z,93.16
2023-11-19T04:19:38.789Z,93.24
2023-11-19T04:22:06.778Z,93.28
2023-11-19T04:24:34.708Z,93.31
2023-11-19T04:27:02.883Z,93.40
2023-11-19T04:29:31.250Z,93.37
2023-11-19T04:31:59.299Z,93.46
2023-11-19T04:34:27.469Z,93.50
2023-11-19T04:36:55.551Z,93.41
2023-11-19T04:39:23.469Z,93.36
2023-11-19T04:41:51.935Z,93.18
2023-11-19T04:44:20.300Z,93.36
2023-11-19T04:46:48.308Z,93.18
2023-11-19T04:49:16.355Z,93.19
2023-11-19T04:51:53.039Z,93.37
2023-11-19T04:54:21.139Z,93.33
2023-11-19T04:56:49.075Z,93.33
2023-11-19T04:59:17.027Z,93.37
2023-11-19T05:01:47.816Z,93.43
2023-11-19T05:04:15.853Z,93.61
2023-11-19T05:06:43.764Z,93.73
2023-11-19T05:09:11.943Z,93.72
2023-11-19T05:11:51.500Z,93.69
2023-11-19T05:14:20.795Z,93.76
2023-11-19T05:16:48.937Z,93.76
2023-11-19T05:19:16.981Z,93.83
2023-11-19T05:21:45.245Z,93.93
2023-11-19T05:24:13.393Z,93.92
2023-11-19T05:26:41.411Z,93.84
2023-11-19T05:29:09.429Z,93.77
2023-11-19T05:31:38.680Z,93.79
2023-11-19T05:34:07.653Z,93.69
2023-11-19T05:36:35.605Z,93.71
2023-11-19T05:39:03.640Z,93.76
2023-11-19T05:41:31.592Z,93.82
2023-11-19T05:43:59.540Z,93.93
2023-11-19T05:46:27.583Z,93.95
2023-11-19T05:48:55.574Z,93.96
2023-11-19T05:51:23.582Z,93.96
2023-11-19T05:53:51.532Z,93.95
2023-11-19T05:56:19.623Z,94.06
2023-11-19T05:58:47.795Z,94.15
2023-11-19T06:01:16.114Z,94.21
2023-11-19T06:03:44.272Z,94.32
2023-11-19T06:06:12.260Z,94.18
2023-11-19T06:08:40.164Z,93.94
2023-11-19T06:11:08.161Z,93.77
2023-11-19T06:13:36.342Z,93.63
2023-11-19T06:16:04.570Z,93.65
2023-11-19T06:18:32.578Z,93.66
2023-11-19T06:21:00.758Z,93.70
2023-11-19T06:23:28.806Z,93.74
2023-11-19T06:25:56.724Z,93.81
2023-11-19T06:28:24.672Z,93.72
2023-11-19T06:30:52.734Z,93.78
2023-11-19T06:33:20.821Z,93.77
2023-11-19T06:35:49.009Z,93.81
2023-11-19T06:38:16.923Z,93.88
2023-11-19T06:40:44.907Z,93.97
2023-11-19T06:43:12.962Z,94.00
2023-11-19T06:45:41.042Z,94.09
2023-11-19T06:48:09.060Z,94.00
2023-11-19T06:50:38.138Z,93.77
2023-11-19T06:53:06.138Z,93.62
2023-11-19T06:55:34.169Z,93.73
2023-11-19T06:58:02.187Z,93.86
2023-11-19T07:00:30.734Z,94.01
2023-11-19T07:02:59.063Z,94.10
2023-11-19T07:05:30.403Z,94.12
2023-11-19T07:07:58.396Z,94.22
2023-11-19T07:10:26.456Z,94.21
2023-11-19T07:12:54.496Z,94.09
2023-11-19T07:15:22.416Z,94.25
2023-11-19T07:20:24.477Z,94.27
2023-11-19T07:22:54.577Z,94.19
2023-11-19T07:25:24.057Z,94.08
2023-11-19T07:27:52.885Z,93.97
2023-11-19T07:30:20.911Z,93.69
2023-11-19T07:32:48.808Z,93.55
2023-11-19T07:35:16.904Z,93.38
2023-11-19T07:37:44.866Z,93.20
2023-11-19T07:40:13.077Z,93.15
2023-11-19T07:42:41.225Z,93.17
2023-11-19T07:45:12.829Z,92.98
2023-11-19T07:47:41.145Z,92.84
2023-11-19T07:50:12.267Z,92.95
2023-11-19T07:52:40.418Z,92.97
2023-11-19T07:55:09.088Z,92.83
2023-11-19T07:57:37.062Z,92.70
2023-11-19T08:00:05.395Z,92.79
2023-11-19T08:02:41.010Z,92.85
2023-11-19T08:05:12.048Z,92.85
2023-11-19T08:07:40.315Z,92.98
2023-11-19T08:10:09.314Z,93.14
2023-11-19T08:12:37.428Z,93.28
2023-11-19T08:15:05.664Z,93.35
2023-11-19T08:17:35.156Z,93.40
2023-11-19T08:20:03.304Z,93.46
2023-11-19T08:22:31.282Z,93.47
2023-11-19T08:24:59.508Z,93.61
2023-11-19T08:27:27.627Z,93.28
2023-11-19T08:29:55.567Z,93.15
2023-11-19T08:32:27.409Z,93.14
2023-11-19T08:34:55.313Z,93.19
2023-11-19T08:37:23.972Z,93.08
2023-11-19T08:39:52.946Z,93.19
2023-11-19T08:42:20.830Z,93.15
2023-11-19T08:44:52.174Z,93.26
2023-11-19T08:47:20.753Z,93.36
2023-11-19T08:50:03.651Z,93.17
2023-11-19T08:52:35.352Z,92.71
2023-11-19T08:55:03.897Z,92.75
2023-11-19T08:57:35.182Z,93.08
2023-11-19T09:00:03.463Z,93.16
2023-11-19T09:02:31.633Z,92.91
2023-11-19T09:04:59.776Z,92.86
2023-11-19T09:07:27.824Z,92.89
2023-11-19T09:09:55.898Z,92.89
2023-11-19T09:12:47.829Z,92.93
2023-11-19T09:15:56.510Z,92.92
2023-11-19T09:18:30.098Z,93.01
2023-11-19T09:21:04.792Z,93.20
2023-11-19T09:23:33.117Z,92.92
2023-11-19T09:26:07.221Z,92.86
2023-11-19T09:28:35.681Z,92.93
2023-11-19T09:31:19.972Z,93.09
2023-11-19T09:34:02.455Z,92.97
2023-11-19T09:36:30.392Z,93.42
2023-11-19T09:38:58.512Z,93.34
2023-11-19T09:41:26.749Z,93.24
2023-11-19T09:43:54.932Z,93.17
2023-11-19T09:46:23.287Z,92.87
2023-11-19T09:48:52.875Z,92.30
2023-11-19T09:51:20.857Z,91.43
2023-11-19T09:53:49.014Z,91.54
2023-11-19T09:56:17.327Z,91.16
2023-11-19T09:58:45.449Z,91.35
2023-11-19T10:03:48.113Z,89.70
2023-11-19T10:06:16.447Z,89.68
2023-11-19T10:08:45.403Z,89.29
2023-11-19T10:11:14.405Z,89.84
2023-11-19T10:13:42.531Z,89.77
2023-11-19T10:16:11.517Z,89.01
2023-11-19T10:18:44.461Z,88.93
2023-11-19T10:21:15.631Z,88.52
2023-11-19T10:23:50.585Z,89.19
2023-11-19T10:26:19.284Z,89.18
2023-11-19T10:28:48.120Z,89.23
2023-11-19T10:31:16.805Z,89.46
2023-11-19T10:33:47.856Z,89.14
2023-11-19T10:36:16.159Z,89.46
2023-11-19T10:38:54.746Z,89.61
2023-11-19T10:41:30.053Z,88.33
2023-11-19T10:44:04.143Z,87.84
2023-11-19T10:46:42.764Z,87.21
2023-11-19T10:49:13.248Z,85.30
2023-11-19T10:51:47.842Z,86.26
2023-11-19T10:54:19.844Z,86.99
2023-11-19T10:57:02.212Z,86.75
2023-11-19T10:59:34.362Z,86.24
2023-11-19T11:02:10.949Z,86.94
2023-11-19T11:04:41.195Z,87.71
2023-11-19T11:07:10.202Z,87.66
2023-11-19T11:09:39.165Z,86.72
2023-11-19T11:12:07.534Z,86.27
2023-11-19T11:14:38.877Z,86.89
2023-11-19T11:17:07.341Z,89.29
2023-11-19T11:19:36.277Z,89.10
2023-11-19T11:22:08.167Z,87.68
2023-11-19T11:25:00.765Z,87.84
2023-11-19T11:27:45.089Z,88.52
2023-11-19T11:30:14.433Z,88.20
2023-11-19T11:32:52.075Z,87.74
2023-11-19T11:35:29.821Z,88.37
2023-11-19T11:38:10.401Z,87.80
2023-11-19T11:40:38.756Z,87.76
2023-11-19T11:43:26.658Z,88.10
2023-11-19T11:45:55.378Z,87.89
2023-11-19T11:48:28.362Z,88.37
2023-11-19T11:50:58.167Z,88.15
2023-11-19T11:53:26.926Z,87.86
2023-11-19T11:55:55.490Z,89.11
2023-11-19T11:58:27.651Z,89.10
2023-11-19T12:00:58.459Z,89.22
2023-11-19T12:03:28.108Z,88.35
2023-11-19T12:05:56.681Z,88.23
2023-11-19T12:08:28.769Z,88.36
2023-11-19T12:11:08.551Z,88.83
2023-11-19T12:13:55.720Z,88.83
2023-11-19T12:16:23.758Z,88.52
2023-11-19T12:18:51.904Z,88.50
2023-11-19T12:21:30.271Z,89.05
2023-11-19T12:24:03.958Z,88.77
2023-11-19T12:26:36.949Z,88.61
2023-11-19T12:29:08.364Z,88.79
2023-11-19T12:31:37.731Z,88.75
2023-11-19T12:34:08.840Z,88.90
2023-11-19T12:36:37.105Z,89.78
2023-11-19T12:39:05.304Z,89.84
2023-11-19T12:41:33.291Z,89.68
2023-11-19T12:44:10.419Z,89.66
2023-11-19T12:46:38.534Z,89.92
2023-11-19T12:49:16.224Z,89.65
2023-11-19T12:51:44.434Z,89.12
2023-11-19T12:54:13.643Z,89.23
2023-11-19T12:56:42.197Z,89.41
2023-11-19T12:59:13.496Z,89.16
2023-11-19T13:01:41.700Z,89.32
2023-11-19T13:04:19.631Z,89.52
2023-11-19T13:07:04.902Z,90.46
2023-11-19T13:09:42.573Z,90.42
2023-11-19T13:12:22.790Z,90.71
2023-11-19T13:14:51.000Z,90.89
2023-11-19T13:17:19.062Z,90.56
2023-11-19T13:19:49.657Z,90.98
2023-11-19T13:22:18.094Z,91.16
2023-11-19T13:24:46.517Z,90.96
2023-11-19T13:27:15.075Z,90.60
2023-11-19T13:29:43.509Z,90.57
2023-11-19T13:32:11.515Z,90.66
2023-11-19T13:34:39.821Z,91.22
2023-11-19T13:37:08.597Z,91.70
2023-11-19T13:39:36.751Z,91.09
2023-11-19T13:44:40.193Z,91.13
2023-11-19T13:47:11.560Z,90.98
2023-11-19T13:49:40.004Z,91.38
2023-11-19T13:52:08.120Z,91.01
2023-11-19T13:54:37.688Z,90.60
2023-11-19T13:57:08.143Z,90.31
2023-11-19T13:59:40.614Z,89.98
2023-11-19T14:02:09.082Z,90.06
2023-11-19T14:04:37.121Z,90.22
2023-11-19T14:07:06.425Z,90.41
2023-11-19T14:09:37.009Z,90.51
2023-11-19T14:12:05.222Z,90.56
2023-11-19T14:14:33.475Z,90.66
2023-11-19T14:19:33.839Z,90.82
2023-11-19T14:22:01.960Z,90.83
2023-11-19T14:24:30.594Z,90.72
2023-11-19T14:26:58.687Z,90.58
2023-11-19T14:29:27.116Z,90.36
2023-11-19T14:31:55.309Z,90.55
2023-11-19T14:34:23.755Z,90.49
2023-11-19T14:36:52.068Z,90.52
2023-11-19T14:39:20.382Z,90.46
2023-11-19T14:41:48.497Z,90.53
2023-11-19T14:44:19.346Z,90.73
2023-11-19T14:46:50.108Z,90.62
2023-11-19T14:49:19.465Z,90.69
2023-11-19T14:51:49.241Z,90.95
2023-11-19T14:54:17.793Z,90.90
2023-11-19T14:56:49.058Z,92.46
2023-11-19T14:59:17.823Z,92.38
2023-11-19T15:01:56.226Z,91.68
2023-11-19T15:04:24.439Z,91.81
2023-11-19T15:06:53.178Z,91.55
2023-11-19T15:09:21.433Z,92.02
2023-11-19T15:11:57.024Z,91.50
2023-11-19T15:14:25.785Z,91.61
2023-11-19T15:16:57.426Z,93.16
2023-11-19T15:19:25.435Z,93.54
2023-11-19T15:21:53.780Z,93.32
2023-11-19T15:24:22.154Z,93.37
2023-11-19T15:26:50.329Z,94.16
2023-11-19T15:29:18.642Z,94.11
2023-11-19T15:31:54.383Z,94.78
2023-11-19T15:34:25.107Z,95.31
2023-11-19T15:36:53.474Z,95.42
2023-11-19T15:39:22.632Z,95.43
2023-11-19T15:41:52.232Z,94.47
2023-11-19T15:44:20.394Z,94.80
2023-11-19T15:46:48.507Z,95.33
2023-11-19T15:49:18.389Z,95.75
2023-11-19T15:51:47.451Z,96.16
2023-11-19T15:54:15.896Z,96.34
2023-11-19T15:56:46.094Z,96.41
2023-11-19T15:59:14.274Z,96.45
2023-11-19T16:01:42.523Z,96.43
2023-11-19T16:04:11.004Z,96.69
2023-11-19T16:06:39.422Z,96.70
2023-11-19T16:09:07.654Z,96.93
2023-11-19T16:11:44.333Z,97.09
2023-11-19T16:14:20.279Z,97.22
2023-11-19T16:16:48.926Z,97.28
2023-11-19T16:19:16.930Z,97.35
2023-11-19T16:21:46.726Z,97.39
2023-11-19T16:24:16.790Z,97.44
2023-11-19T16:26:45.217Z,97.54
2023-11-19T16:29:13.354Z,97.62
2023-11-19T16:31:41.754Z,97.67
2023-11-19T16:34:12.872Z,97.70
2023-11-19T16:36:41.237Z,97.71
2023-11-19T16:41:44.785Z,97.85
2023-11-19T16:44:13.561Z,97.89
2023-11-19T16:46:42.201Z,97.92
2023-11-19T16:49:10.970Z,97.93
2023-11-19T16:51:39.630Z,97.97
2023-11-19T16:54:08.106Z,98.00
2023-11-19T16:56:39.749Z,98.03
2023-11-19T16:59:09.306Z,98.05
2023-11-19T17:01:37.547Z,98.06
2023-11-19T17:04:09.784Z,98.11
2023-11-19T17:06:41.221Z,98.14
2023-11-19T17:09:10.295Z,98.17
2023-11-19T17:11:38.784Z,98.20
2023-11-19T17:14:07.119Z,98.23
2023-11-19T17:16:40.252Z,98.26
2023-11-19T17:19:10.961Z,98.27
2023-11-19T17:21:39.293Z,98.28
2023-11-19T17:24:08.092Z,98.28
2023-11-19T17:29:07.303Z,98.31
2023-11-19T17:31:35.651Z,98.31
2023-11-19T17:34:04.864Z,98.34
2023-11-19T17:36:33.968Z,98.35
2023-11-19T17:39:02.603Z,98.37
2023-11-19T17:41:31.470Z,98.39
2023-11-19T17:43:59.735Z,98.41
2023-11-19T17:46:27.737Z,98.41
2023-11-19T17:48:59.499Z,98.41
2023-11-19T17:51:27.620Z,98.40
2023-11-19T17:53:57.738Z,98.43
2023-11-19T17:56:25.887Z,98.44
2023-11-19T17:58:54.073Z,98.47
2023-11-19T18:01:22.777Z,98.47
2023-11-19T18:03:51.326Z,98.48
2023-11-19T18:06:19.672Z,98.52
2023-11-19T18:08:48.098Z,98.53
2023-11-19T18:11:17.457Z,98.53
2023-11-19T18:13:46.684Z,98.55
2023-11-19T18:16:17.158Z,98.56
2023-11-19T18:18:45.543Z,98.58
2023-11-19T18:21:14.188Z,98.59
2023-11-19T18:23:42.182Z,98.58
2023-11-19T18:26:13.145Z,98.58
2023-11-19T18:28:41.234Z,98.59
2023-11-19T18:31:11.111Z,98.60
2023-11-19T18:33:39.727Z,98.60
2023-11-19T18:36:09.641Z,98.60
2023-11-19T18:38:46.304Z,98.60
2023-11-19T18:41:16.151Z,98.60
2023-11-19T18:43:44.569Z,98.59
2023-11-19T18:46:14.159Z,98.58
2023-11-19T18:48:42.244Z,98.57
2023-11-19T18:51:10.301Z,98.55
2023-11-19T18:53:41.531Z,98.55
2023-11-19T18:56:20.149Z,98.55
2023-11-19T18:58:53.508Z,98.55
2023-11-19T19:01:23.315Z,98.55
2023-11-19T19:03:51.645Z,98.56
2023-11-19T19:06:29.027Z,98.59
2023-11-19T19:09:06.365Z,98.61
2023-11-19T19:11:38.429Z,98.63
2023-11-19T19:14:06.707Z,98.65
2023-11-19T19:16:34.910Z,98.67
2023-11-19T19:19:03.084Z,98.69
2023-11-19T19:21:40.704Z,98.70
2023-11-19T19:24:24.325Z,98.71
2023-11-19T19:26:52.636Z,98.71
2023-11-19T19:29:23.563Z,98.72
2023-11-19T19:31:52.556Z,98.72
2023-11-19T19:34:23.885Z,98.73
2023-11-19T19:36:56.282Z,98.71
2023-11-19T19:39:25.251Z,98.71
2023-11-19T19:41:57.050Z,98.71
2023-11-19T19:44:30.884Z,98.71
2023-11-19T19:47:02.163Z,98.70
2023-11-19T19:49:52.927Z,98.71
2023-11-19T19:52:40.706Z,98.71
2023-11-19T19:55:17.506Z,98.70
2023-11-19T19:57:45.776Z,98.72
2023-11-19T20:00:18.023Z,98.72
2023-11-19T20:02:47.573Z,98.73
2023-11-19T20:05:19.617Z,98.73
2023-11-19T20:07:52.837Z,98.74
2023-11-19T20:10:21.219Z,98.74
2023-11-19T20:12:51.527Z,98.75
2023-11-19T20:15:33.567Z,98.76
2023-11-19T20:18:02.241Z,98.78
2023-11-19T20:20:31.026Z,98.80
2023-11-19T20:22:59.399Z,98.81
2023-11-19T20:25:30.258Z,98.82
2023-11-19T20:28:04.463Z,98.83
2023-11-19T20:30:32.912Z,98.85
2023-11-19T20:33:01.598Z,98.87
2023-11-19T20:35:30.174Z,98.87
2023-11-19T20:37:58.454Z,98.88
2023-11-19T20:40:28.930Z,98.89
2023-11-19T20:42:59.344Z,98.91
2023-11-19T20:45:27.472Z,98.92
2023-11-19T20:47:56.619Z,98.93
2023-11-19T20:50:27.235Z,98.93
2023-11-19T20:53:12.081Z,98.93
2023-11-19T20:55:41.376Z,98.93
2023-11-19T20:58:13.651Z,98.93
2023-11-19T21:00:43.708Z,98.93
2023-11-19T21:03:20.248Z,98.94
2023-11-19T21:05:48.427Z,98.94
2023-11-19T21:08:16.571Z,98.94
2023-11-19T21:10:45.359Z,98.95
2023-11-19T21:13:18.900Z,98.95
2023-11-19T21:15:54.492Z,98.96
2023-11-19T21:19:08.947Z,98.97
2023-11-19T21:22:00.480Z,98.97
2023-11-19T21:24:33.300Z,98.97
2023-11-19T21:27:01.438Z,98.97
2023-11-19T21:29:29.711Z,98.96
2023-11-19T21:31:58.904Z,98.97
2023-11-19T21:34:26.966Z,98.98
2023-11-19T21:36:55.248Z,98.98
2023-11-19T21:39:23.676Z,98.99
2023-11-19T21:41:53.289Z,98.99
2023-11-19T21:44:21.937Z,99.00
2023-11-19T21:46:50.174Z,99.00
2023-11-19T21:49:18.427Z,99.00
2023-11-19T21:51:54.091Z,99.01
2023-11-19T21:54:22.288Z,99.00
2023-11-19T21:56:50.480Z,99.00
2023-11-19T21:59:18.397Z,99.01
2023-11-19T22:01:46.388Z,99.01
2023-11-19T22:04:14.578Z,99.02
2023-11-19T22:06:42.543Z,99.01
2023-11-19T22:09:10.784Z,99.02
2023-11-19T22:11:38.911Z,99.03
2023-11-19T22:14:06.980Z,99.03
2023-11-19T22:16:35.116Z,99.03
2023-11-19T22:19:03.061Z,99.04
2023-11-19T22:21:31.276Z,99.04
2023-11-19T22:23:59.360Z,99.04
2023-11-19T22:26:27.412Z,99.04
2023-11-19T22:28:55.444Z,99.04
2023-11-19T22:31:23.726Z,99.05
2023-11-19T22:33:51.797Z,99.05
2023-11-19T22:36:19.863Z,99.05
2023-11-19T22:38:47.801Z,99.06
2023-11-19T22:41:15.795Z,99.06
2023-11-19T22:43:43.831Z,99.07
2023-11-19T22:46:11.877Z,99.08
2023-11-19T22:48:39.945Z,99.07
2023-11-19T22:51:07.977Z,99.08
2023-11-19T22:53:35.882Z,99.08
2023-11-19T22:56:03.959Z,99.08
2023-11-19T22:58:31.917Z,99.09
2023-11-19T23:00:59.892Z,99.08
2023-11-19T23:03:27.995Z,99.09
2023-11-19T23:05:56.094Z,99.10
2023-11-19T23:08:23.979Z,99.10
2023-11-19T23:10:52.075Z,99.11
2023-11-19T23:13:20.043Z,99.11
2023-11-19T23:15:48.261Z,99.11
2023-11-19T23:18:16.285Z,99.11
2023-11-19T23:20:44.327Z,99.11
2023-11-19T23:23:14.209Z,99.11
2023-11-19T23:25:42.515Z,99.12
2023-11-19T23:28:13.147Z,99.12
2023-11-19T23:30:44.804Z,99.13
2023-11-19T23:33:12.755Z,99.13
2023-11-19T23:35:41.415Z,99.13
2023-11-19T23:38:09.492Z,99.14
2023-11-19T23:40:37.628Z,99.13
2023-11-19T23:43:05.805Z,99.15
2023-11-19T23:45:34.338Z,99.14
2023-11-19T23:48:02.441Z,99.15
2023-11-19T23:50:30.519Z,99.16
2023-11-19T23:52:58.484Z,99.16
2023-11-19T23:55:26.441Z,99.15
2023-11-19T23:57:54.344Z,99.16
